Time;durP1;ratioP1;P1;durP2;ratioP2;P2;SDS_P1;SDS_P2;PMS_P1;PMS_P2;Temp;Humidity;BMP_temperature;BMP_pressure;BME280_temperature;BME280_humidity;BME280_pressure;Samples;Min_cycle;Max_cycle;Signal;HPM_P1;HPM_P2
2021/06/13 00:00:11;;;;;;;9.93;5.85;;;;;;;13.53;63.64;101216.72;5015995;28;20057;-66
2021/06/13 00:06:30;;;;;;;11.02;5.60;;;;;;;13.39;63.81;101220.34;4351973;23;22277;-76
2021/06/13 00:08:57;;;;;;;8.88;5.20;;;;;;;13.44;63.94;101207.41;4995805;28;20054;-76
2021/06/13 00:11:24;;;;;;;8.60;5.00;;;;;;;13.42;63.75;101223.66;4996099;28;20046;-76
2021/06/13 00:13:51;;;;;;;10.15;5.13;;;;;;;13.42;63.65;101229.28;4995533;28;20053;-76
2021/06/13 00:16:19;;;;;;;7.88;5.15;;;;;;;13.39;63.54;101219.53;4996265;28;20420;-76
2021/06/13 00:18:46;;;;;;;8.50;5.47;;;;;;;13.33;63.79;101221.66;4996596;28;20061;-76
2021/06/13 00:21:13;;;;;;;11.05;5.90;;;;;;;13.27;63.60;101228.47;4996186;28;20054;-76
2021/06/13 00:23:43;;;;;;;8.90;5.10;;;;;;;13.25;64.22;101225.16;4995604;28;20050;-76
2021/06/13 00:26:10;;;;;;;7.80;5.45;;;;;;;13.23;63.91;101233.03;4996546;28;20050;-76
2021/06/13 00:28:38;;;;;;;14.13;5.78;;;;;;;13.19;63.99;101232.81;4996322;28;20412;-76
2021/06/13 00:31:06;;;;;;;11.25;6.03;;;;;;;13.08;64.43;101236.16;4996097;28;20440;-76
2021/06/13 00:33:35;;;;;;;9.00;5.80;;;;;;;13.04;64.60;101238.75;4996123;28;20065;-76
2021/06/13 00:36:02;;;;;;;10.10;5.90;;;;;;;13.05;64.26;101242.38;4996576;28;20066;-76
2021/06/13 00:38:29;;;;;;;11.52;6.35;;;;;;;12.97;64.87;101241.13;4995547;28;20051;-76
2021/06/13 00:40:57;;;;;;;9.77;5.88;;;;;;;12.89;65.09;101241.84;4996050;28;20057;-76
2021/06/13 00:43:24;;;;;;;8.77;5.95;;;;;;;12.86;65.04;101248.91;4996206;28;20050;-76
2021/06/13 00:45:51;;;;;;;7.18;5.03;;;;;;;12.89;65.04;101250.25;4995979;28;20050;-76
2021/06/13 00:48:18;;;;;;;9.85;5.40;;;;;;;12.87;64.79;101242.19;4996012;28;20058;-76
2021/06/13 00:50:48;;;;;;;9.82;5.53;;;;;;;12.78;65.38;101242.06;4995954;28;20046;-76
2021/06/13 00:53:15;;;;;;;8.93;5.90;;;;;;;12.74;65.31;101252.22;4995308;28;20411;-76
2021/06/13 00:55:42;;;;;;;8.65;5.28;;;;;;;12.75;65.52;101247.47;4995910;28;20055;-77
2021/06/13 00:58:10;;;;;;;7.35;5.15;;;;;;;12.77;65.82;101256.38;4995821;28;20051;-76
2021/06/13 01:00:39;;;;;;;10.93;5.88;;;;;;;12.69;65.59;101254.28;4996126;28;20061;-76
2021/06/13 01:03:10;;;;;;;13.35;6.25;;;;;;;12.69;65.83;101259.88;4994906;28;20066;-76
2021/06/13 01:05:38;;;;;;;8.80;6.00;;;;;;;12.64;66.07;101258.03;4995457;28;20404;-76
2021/06/13 01:08:18;;;;;;;10.68;5.60;;;;;;;12.63;65.95;101261.13;5007159;28;20060;-76
2021/06/13 01:10:54;;;;;;;9.90;5.97;;;;;;;12.62;66.25;101267.84;5014859;28;20057;-76
2021/06/13 01:13:32;;;;;;;9.70;5.65;;;;;;;12.59;66.09;101272.09;5014775;28;20510;-76
2021/06/13 01:16:04;;;;;;;11.23;6.15;;;;;;;12.62;65.92;101267.84;5014081;28;20057;-76
2021/06/13 01:18:40;;;;;;;8.65;5.55;;;;;;;12.58;65.74;101265.66;5014915;28;20061;-76
2021/06/13 01:21:17;;;;;;;9.00;5.57;;;;;;;12.52;66.52;101266.06;5014930;28;20068;-76
2021/06/13 01:24:08;;;;;;;11.98;6.35;;;;;;;12.46;66.41;101270.94;5013826;28;20054;-76
2021/06/13 01:27:13;;;;;;;11.30;5.93;;;;;;;12.44;66.44;101266.78;5014306;28;20061;-76
2021/06/13 01:29:43;;;;;;;11.13;6.15;;;;;;;12.42;66.46;101269.06;5004379;28;20061;-76
2021/06/13 01:32:16;;;;;;;10.43;6.47;;;;;;;12.43;66.32;101273.50;5014913;28;20050;-76
2021/06/13 01:34:48;;;;;;;9.70;5.90;;;;;;;12.43;66.51;101273.50;5014460;28;20057;-76
2021/06/13 01:37:18;;;;;;;12.32;6.35;;;;;;;12.44;66.63;101267.59;5014755;28;20050;-76
2021/06/13 01:39:48;;;;;;;12.52;6.53;;;;;;;12.37;66.90;101269.97;5013549;28;20054;-76
2021/06/13 01:42:16;;;;;;;11.68;6.00;;;;;;;12.36;66.58;101276.69;5014722;28;20479;-76
2021/06/13 01:44:47;;;;;;;9.55;5.40;;;;;;;12.33;67.06;101268.94;5014086;28;20061;-76
2021/06/13 01:47:15;;;;;;;10.85;6.32;;;;;;;12.27;66.94;101267.38;5014044;28;20480;-76
2021/06/13 01:49:43;;;;;;;12.93;6.35;;;;;;;12.24;67.02;101267.97;5013776;28;20057;-76
2021/06/13 01:52:13;;;;;;;10.35;6.30;;;;;;;12.22;66.96;101276.69;5014278;28;20520;-76
2021/06/13 01:54:41;;;;;;;;;;;;;;;12.12;67.48;101276.84;5014553;28;20487;-76
2021/06/13 01:57:09;;;;;;;8.80;5.88;;;;;;;12.11;67.37;101275.16;5014003;28;19922;-76
2021/06/13 01:59:40;;;;;;;10.63;6.30;;;;;;;12.12;67.10;101276.84;5014519;28;20061;-76
2021/06/13 02:02:09;;;;;;;10.95;6.15;;;;;;;12.13;66.98;101276.53;5014266;28;20050;-76
2021/06/13 02:04:37;;;;;;;10.05;6.10;;;;;;;12.04;67.04;101272.78;5014111;28;20057;-76
2021/06/13 02:07:05;;;;;;;9.50;6.15;;;;;;;12.02;67.24;101271.44;5014044;28;20057;-76
2021/06/13 02:09:34;;;;;;;8.82;5.75;;;;;;;11.97;67.23;101275.13;5013555;28;20057;-76
2021/06/13 02:12:03;;;;;;;10.77;5.55;;;;;;;11.93;67.69;101271.28;5013752;28;20050;-76
2021/06/13 02:14:31;;;;;;;10.65;7.10;;;;;;;11.92;67.83;101273.22;5014068;28;20054;-76
2021/06/13 02:17:01;;;;;;;8.40;5.72;;;;;;;11.94;67.68;101270.16;5013900;28;20510;-76
2021/06/13 02:19:30;;;;;;;12.65;7.18;;;;;;;11.95;67.25;101277.41;5014155;28;20049;-76
2021/06/13 02:21:59;;;;;;;9.00;6.43;;;;;;;11.96;66.94;101267.88;5013702;28;20058;-76
2021/06/13 02:24:29;;;;;;;10.65;7.28;;;;;;;11.97;67.00;101269.56;5013322;28;20054;-76
2021/06/13 02:26:57;;;;;;;10.05;6.25;;;;;;;11.94;66.64;101267.34;5013825;28;20054;-76
2021/06/13 02:29:25;;;;;;;11.15;6.85;;;;;;;11.89;66.97;101270.25;5012942;28;20054;-76
2021/06/13 02:31:55;;;;;;;11.50;6.38;;;;;;;11.83;67.13;101269.44;5013861;28;20491;-76
2021/06/13 02:34:25;;;;;;;8.73;6.60;;;;;;;11.84;66.97;101276.69;5013565;28;20076;-76
2021/06/13 02:36:56;;;;;;;11.98;6.82;;;;;;;11.79;67.36;101279.56;5013865;28;20460;-76
2021/06/13 02:39:24;;;;;;;12.57;6.82;;;;;;;11.75;67.81;101279.34;5013411;28;20053;-76
2021/06/13 02:41:51;;;;;;;9.75;6.55;;;;;;;11.73;67.84;101284.38;5013646;28;20061;-76
2021/06/13 02:44:19;;;;;;;9.93;6.50;;;;;;;11.75;67.71;101290.50;5013713;28;20050;-76
2021/06/13 02:46:47;;;;;;;8.73;6.88;;;;;;;11.73;67.88;101289.16;5013699;28;20050;-76
2021/06/13 02:49:14;;;;;;;9.77;6.70;;;;;;;11.70;67.97;101298.97;5013160;28;20057;-76
2021/06/13 02:51:47;;;;;;;12.15;6.47;;;;;;;11.72;67.81;101298.66;5013999;28;20057;-76
2021/06/13 02:54:18;;;;;;;11.23;6.15;;;;;;;11.69;67.52;101294.50;5013372;28;20352;-76
2021/06/13 02:56:52;;;;;;;12.68;6.22;;;;;;;11.67;67.25;101304.31;5012925;28;20049;-76
2021/06/13 02:59:29;;;;;;;13.02;6.30;;;;;;;11.57;67.38;101299.72;5013645;28;20053;-76
2021/06/13 03:01:58;;;;;;;9.05;5.78;;;;;;;11.55;67.42;101297.22;5013473;28;20054;-76
2021/06/13 03:04:24;;;;;;;10.68;6.70;;;;;;;11.50;67.61;101297.28;5013199;28;20061;-76
2021/06/13 03:06:54;;;;;;;10.20;6.70;;;;;;;11.44;67.31;101295.69;5013328;28;20049;-76
2021/06/13 03:09:25;;;;;;;10.40;6.70;;;;;;;11.43;67.83;101293.22;5013553;28;20053;-77
2021/06/13 03:11:53;;;;;;;11.93;6.78;;;;;;;11.40;68.19;101299.38;5012943;28;20530;-76
2021/06/13 03:14:22;;;;;;;15.63;7.57;;;;;;;11.38;68.64;101296.88;5013152;28;20054;-76
2021/06/13 03:16:49;;;;;;;14.10;7.72;;;;;;;11.37;68.57;101296.06;5013191;28;20054;-75
2021/06/13 03:19:18;;;;;;;11.90;7.50;;;;;;;11.37;68.32;101298.84;5013609;28;20060;-75
2021/06/13 03:21:46;;;;;;;11.73;7.38;;;;;;;11.40;68.74;101303.00;5013446;28;20060;-76
2021/06/13 03:24:17;;;;;;;12.75;7.10;;;;;;;11.36;68.68;101302.78;5012629;28;20050;-76
2021/06/13 03:26:46;;;;;;;13.68;7.93;;;;;;;11.33;68.83;101308.13;5012812;28;20072;-77
2021/06/13 03:29:27;;;;;;;10.13;7.07;;;;;;;11.31;68.98;101299.22;5020454;28;20053;-77
2021/06/13 03:31:56;;;;;;;11.57;6.97;;;;;;;11.29;69.04;101316.25;5013807;28;20054;-77
2021/06/13 03:34:23;;;;;;;12.43;6.70;;;;;;;11.34;68.92;101318.16;5013224;28;20068;-76
2021/06/13 03:36:50;;;;;;;14.52;7.95;;;;;;;11.34;68.67;101319.00;5013795;28;20061;-77
2021/06/13 03:39:19;;;;;;;9.43;6.43;;;;;;;11.38;68.56;101316.41;5014390;28;20061;-77
2021/06/13 03:41:48;;;;;;;11.18;7.13;;;;;;;11.44;68.14;101318.00;5016493;28;20365;-77
2021/06/13 03:44:15;;;;;;;10.77;6.70;;;;;;;11.45;68.04;101321.66;5017073;28;20053;-77
2021/06/13 03:46:44;;;;;;;12.32;7.43;;;;;;;11.48;68.07;101329.41;5016823;28;20054;-77
2021/06/13 03:49:14;;;;;;;12.43;6.97;;;;;;;11.47;67.89;101323.00;5016627;28;20376;-77
2021/06/13 03:51:41;;;;;;;12.60;7.00;;;;;;;11.50;67.84;101329.94;5016391;28;20058;-77
2021/06/13 03:54:09;;;;;;;11.18;6.82;;;;;;;11.44;68.05;101328.34;5016394;28;20492;-77
2021/06/13 03:56:41;;;;;;;11.80;7.43;;;;;;;11.46;68.28;101331.66;5015991;28;20471;-77
2021/06/13 03:59:11;;;;;;;11.25;7.22;;;;;;;11.47;68.46;101334.16;5016796;28;20053;-77
2021/06/13 04:01:41;;;;;;;10.18;6.47;;;;;;;11.48;68.41;101340.56;5017050;28;20499;-77
2021/06/13 04:04:10;;;;;;;;;;;;;;;11.48;68.44;101352.53;5016342;28;20049;-77
2021/06/13 04:06:40;;;;;;;15.70;8.15;;;;;;;11.57;67.90;101352.72;5016551;28;20371;-77
2021/06/13 04:09:10;;;;;;;10.73;6.40;;;;;;;11.63;67.82;101348.72;5016283;28;20056;-77
2021/06/13 04:11:39;;;;;;;12.73;6.60;;;;;;;11.66;67.51;101347.31;5016575;28;20054;-77
2021/06/13 04:14:07;;;;;;;10.30;6.30;;;;;;;11.71;67.24;101350.84;5015838;28;20057;-77
2021/06/13 04:16:36;;;;;;;11.25;6.80;;;;;;;11.73;67.06;101343.00;5015939;28;20065;-77
2021/06/13 04:19:04;;;;;;;11.50;6.45;;;;;;;11.76;67.02;101348.00;5015999;28;20054;-77
2021/06/13 04:21:31;;;;;;;11.75;7.38;;;;;;;11.80;66.75;101351.03;5016070;28;20053;-77
2021/06/13 04:23:59;;;;;;;8.82;6.35;;;;;;;11.83;66.65;101357.97;5016025;28;20049;-77
2021/06/13 04:26:29;;;;;;;12.82;7.15;;;;;;;11.83;66.60;101352.38;5015897;28;20061;-77
2021/06/13 04:28:57;;;;;;;8.15;6.43;;;;;;;11.83;66.83;101353.19;5016130;28;20419;-76
2021/06/13 04:31:26;;;;;;;13.60;7.30;;;;;;;11.87;66.96;101364.59;5016058;28;20057;-77
2021/06/13 04:33:55;;;;;;;10.63;6.63;;;;;;;11.90;66.96;101364.00;5015885;28;20053;-77
2021/06/13 04:36:23;;;;;;;11.50;7.63;;;;;;;11.91;67.38;101362.91;5015698;28;20061;-77
2021/06/13 04:38:51;;;;;;;12.52;7.63;;;;;;;11.91;67.80;101360.09;5015834;28;20050;-77
2021/06/13 04:41:19;;;;;;;16.38;7.35;;;;;;;11.95;67.51;101358.38;5015827;28;20050;-77
2021/06/13 04:43:46;;;;;;;15.27;8.38;;;;;;;12.05;67.91;101355.41;5015658;28;20053;-77
2021/06/13 04:46:17;;;;;;;13.90;7.30;;;;;;;12.15;67.79;101349.66;5015914;28;20049;-77
2021/06/13 04:48:44;;;;;;;12.88;7.88;;;;;;;12.26;67.12;101355.09;5015876;28;20491;-77
2021/06/13 04:51:13;;;;;;;12.43;7.90;;;;;;;12.35;67.58;101367.25;5014297;28;20468;-77
2021/06/13 04:54:09;;;;;;;15.27;7.80;;;;;;;12.42;67.77;101359.28;5015460;28;20418;-77
2021/06/13 04:56:44;;;;;;;14.68;7.65;;;;;;;12.49;67.81;101367.28;5015614;28;20061;-77
2021/06/13 04:59:11;;;;;;;13.90;7.68;;;;;;;12.53;67.81;101376.72;5015538;28;20057;-77
2021/06/13 05:01:41;;;;;;;13.73;8.55;;;;;;;12.59;68.02;101376.31;5016363;28;20049;-77
2021/06/13 05:04:09;;;;;;;11.48;8.15;;;;;;;12.72;67.65;101368.28;5015622;28;20063;-77
2021/06/13 05:06:42;;;;;;;13.95;7.72;;;;;;;12.79;67.56;101374.31;5016061;28;20057;-77
2021/06/13 05:09:10;;;;;;;13.00;8.30;;;;;;;12.86;67.66;101385.91;5016947;28;20053;-77
2021/06/13 05:11:37;;;;;;;12.52;8.20;;;;;;;12.89;67.92;101373.28;5016184;28;20046;-77
2021/06/13 05:14:05;;;;;;;15.35;8.88;;;;;;;12.94;67.55;101376.81;5017418;28;20053;-77
2021/06/13 05:16:32;;;;;;;14.77;8.15;;;;;;;12.98;67.46;101380.66;5016127;28;20073;-77
2021/06/13 05:19:00;;;;;;;14.27;8.73;;;;;;;13.09;67.46;101383.25;5016746;28;20498;-77
2021/06/13 05:21:27;;;;;;;13.45;8.20;;;;;;;13.18;67.17;101387.81;5006764;28;20046;-77
2021/06/13 05:23:56;;;;;;;18.58;8.65;;;;;;;13.25;66.81;101393.03;4995549;28;20061;-77
2021/06/13 05:26:23;;;;;;;15.93;8.85;;;;;;;13.30;66.47;101384.53;4998017;28;20070;-77
2021/06/13 05:28:51;;;;;;;13.25;7.85;;;;;;;13.38;65.99;101381.03;4997667;28;20050;-77
2021/06/13 05:31:18;;;;;;;15.57;8.00;;;;;;;13.46;65.80;101387.88;4997522;28;20050;-77
2021/06/13 05:33:45;;;;;;;12.82;7.25;;;;;;;13.56;64.61;101390.44;4997619;28;20065;-77
2021/06/13 05:36:12;;;;;;;14.38;6.75;;;;;;;13.67;64.33;101388.28;4999542;28;20050;-78
2021/06/13 05:38:41;;;;;;;10.38;6.32;;;;;;;13.78;63.99;101386.91;4999382;28;20054;-77
2021/06/13 05:41:10;;;;;;;12.70;7.22;;;;;;;13.89;63.35;101386.66;4998800;28;20050;-78
2021/06/13 05:43:38;;;;;;;11.75;6.70;;;;;;;13.98;63.31;101394.03;4998623;28;20050;-78
2021/06/13 05:46:05;;;;;;;10.63;6.22;;;;;;;14.15;62.08;101396.16;4999418;28;20050;-78
2021/06/13 05:48:33;;;;;;;11.73;6.80;;;;;;;14.32;61.67;101408.63;4998721;28;20062;-78
2021/06/13 05:51:01;;;;;;;14.18;6.57;;;;;;;14.40;61.47;101413.47;4997380;28;20388;-77
2021/06/13 05:53:28;;;;;;;10.95;5.85;;;;;;;14.50;61.37;101410.44;4998333;28;20058;-77
2021/06/13 05:55:55;;;;;;;12.52;5.80;;;;;;;14.55;60.85;101413.16;4992567;28;20065;-77
2021/06/13 05:58:24;;;;;;;13.25;6.45;;;;;;;14.63;60.99;101413.53;4999893;28;20058;-78
2021/06/13 06:00:52;;;;;;;10.93;5.97;;;;;;;14.73;60.80;101414.09;4998702;28;20061;-78
2021/06/13 06:03:19;;;;;;;11.70;5.88;;;;;;;14.89;59.76;101411.75;4999482;28;20073;-77
2021/06/13 06:05:46;;;;;;;8.85;5.75;;;;;;;14.89;59.53;101419.31;4999673;28;20054;-78
2021/06/13 06:08:14;;;;;;;10.70;6.07;;;;;;;14.93;59.45;101428.72;5012083;28;20054;-78
2021/06/13 06:10:41;;;;;;;12.13;6.35;;;;;;;15.01;59.79;101436.38;5016432;28;20057;-77
2021/06/13 06:13:09;;;;;;;12.20;5.80;;;;;;;15.02;59.72;101433.25;5017532;28;20056;-78
2021/06/13 06:15:40;;;;;;;8.77;5.07;;;;;;;15.15;59.49;101437.13;5016723;28;20053;-78
2021/06/13 06:18:08;;;;;;;13.23;6.10;;;;;;;15.23;58.47;101432.72;5017208;28;20050;-77
2021/06/13 06:20:36;;;;;;;9.70;5.05;;;;;;;15.41;57.69;101440.06;5017400;28;20061;-77
2021/06/13 06:23:04;;;;;;;10.45;5.32;;;;;;;15.54;57.39;101435.50;5015893;28;20049;-77
2021/06/13 06:25:32;;;;;;;9.25;4.70;;;;;;;15.76;55.83;101439.41;5015664;28;20057;-78
2021/06/13 06:28:00;;;;;;;12.30;5.30;;;;;;;15.80;56.37;101434.78;5017150;28;20054;-78
2021/06/13 06:30:28;;;;;;;11.18;5.00;;;;;;;15.83;56.05;101445.34;5017605;28;20050;-78
2021/06/13 06:32:58;;;;;;;11.30;5.25;;;;;;;15.90;55.95;101448.53;5003677;28;20043;-78
2021/06/13 06:35:26;;;;;;;10.52;5.55;;;;;;;16.01;56.01;101449.88;5011431;28;20575;-78
2021/06/13 06:37:54;;;;;;;9.20;5.57;;;;;;;16.01;57.11;101455.50;5013422;28;20050;-73
2021/06/13 06:40:21;;;;;;;14.60;4.90;;;;;;;16.13;56.48;101456.84;5013212;28;20050;-73
2021/06/13 06:42:48;;;;;;;9.30;5.72;;;;;;;16.31;55.91;101461.31;5011981;28;20053;-73
2021/06/13 06:45:16;;;;;;;12.82;4.55;;;;;;;16.35;55.41;101461.50;5013331;28;20483;-73
2021/06/13 06:47:44;;;;;;;10.38;4.57;;;;;;;16.17;54.38;101458.66;5012042;28;20054;-73
2021/06/13 06:50:13;;;;;;;9.05;5.18;;;;;;;16.23;54.85;101460.16;5013870;28;20049;-73
2021/06/13 06:52:41;;;;;;;9.50;4.68;;;;;;;16.64;53.92;101458.03;5005827;28;20057;-73
2021/06/13 06:55:09;;;;;;;6.30;3.80;;;;;;;16.91;52.79;101462.50;5012885;28;20515;-73
2021/06/13 06:57:42;;;;;;;7.78;4.22;;;;;;;17.22;50.90;101458.63;5013711;28;20058;-73
2021/06/13 07:00:11;;;;;;;8.52;4.40;;;;;;;17.38;50.94;101451.28;5013110;28;20054;-73
2021/06/13 07:02:38;;;;;;;9.43;4.13;;;;;;;17.55;50.18;101444.75;5010096;28;20053;-73
2021/06/13 07:05:08;;;;;;;9.05;4.25;;;;;;;17.63;50.23;101454.31;5013701;28;20415;-73
2021/06/13 07:07:37;;;;;;;11.23;4.63;;;;;;;17.91;50.33;101448.25;5013281;28;20053;-73
2021/06/13 07:10:06;;;;;;;11.10;4.50;;;;;;;18.16;49.25;101466.16;5012770;28;20479;-73
2021/06/13 07:12:34;;;;;;;8.00;4.38;;;;;;;18.28;48.36;101460.59;5013641;28;20050;-73
2021/06/13 07:15:01;;;;;;;7.32;4.20;;;;;;;18.65;47.71;101472.94;5016078;28;20415;-73
2021/06/13 07:17:29;;;;;;;8.45;4.15;;;;;;;17.70;48.59;101471.56;5005778;28;20050;-73
2021/06/13 07:19:57;;;;;;;7.10;4.00;;;;;;;17.99;48.35;101472.75;5016932;28;20061;-79
2021/06/13 07:22:24;;;;;;;8.70;4.05;;;;;;;18.42;47.90;101475.28;5024443;28;20049;-81
2021/06/13 07:24:53;;;;;;;8.68;4.20;;;;;;;18.90;46.03;101478.72;5025946;28;20056;-79
2021/06/13 07:27:21;;;;;;;9.77;4.63;;;;;;;19.17;44.99;101476.44;5023605;28;20053;-78
2021/06/13 07:29:48;;;;;;;9.05;4.10;;;;;;;19.46;43.29;101478.28;5013328;28;20053;-77
2021/06/13 07:32:17;;;;;;;11.15;4.22;;;;;;;19.66;42.94;101483.03;5030147;28;20057;-79
2021/06/13 07:34:44;;;;;;;7.28;4.35;;;;;;;19.79;42.74;101474.59;5028982;28;20061;-79
2021/06/13 07:37:12;;;;;;;10.00;4.00;;;;;;;19.91;42.16;101476.56;5015029;28;20054;-79
2021/06/13 07:39:40;;;;;;;8.85;4.25;;;;;;;19.96;42.10;101484.84;5013446;28;20071;-80
2021/06/13 07:42:10;;;;;;;6.78;3.70;;;;;;;19.93;42.97;101480.72;5018141;28;20050;-79
2021/06/13 07:44:39;;;;;;;9.32;3.95;;;;;;;20.05;41.33;101494.00;5022372;28;20352;-78
2021/06/13 07:47:07;;;;;;;7.38;3.63;;;;;;;19.83;41.54;101492.50;5013453;28;20077;-79
2021/06/13 07:49:34;;;;;;;10.20;4.40;;;;;;;19.91;41.77;101491.56;5003825;28;20054;-78
2021/06/13 07:52:01;;;;;;;7.78;3.50;;;;;;;19.98;40.76;101488.13;5019086;28;20050;-78
2021/06/13 07:54:30;;;;;;;5.28;3.70;;;;;;;20.25;39.85;101495.88;5025857;28;20411;-78
2021/06/13 07:56:57;;;;;;;7.35;3.88;;;;;;;21.04;37.11;101509.63;5027038;28;20053;-79
2021/06/13 07:59:26;;;;;;;8.32;4.30;;;;;;;22.31;35.36;101491.06;5027240;28;20069;-78
2021/06/13 08:01:53;;;;;;;10.55;5.53;;;;;;;23.22;33.80;101493.41;5026410;28;20050;-79
2021/06/13 08:04:21;;;;;;;6.50;3.40;;;;;;;24.07;31.59;101489.66;5028890;28;20057;-79
2021/06/13 08:06:49;;;;;;;7.05;4.63;;;;;;;24.66;30.68;101484.44;5029084;28;20058;-78
2021/06/13 08:09:17;;;;;;;6.38;3.58;;;;;;;25.39;29.22;101495.47;5028865;28;20057;-79
2021/06/13 08:11:44;;;;;;;8.10;3.45;;;;;;;25.90;27.99;101486.19;5028495;28;20057;-78
2021/06/13 08:14:11;;;;;;;8.32;4.13;;;;;;;26.53;27.66;101484.16;5027647;28;20054;-79
2021/06/13 08:16:40;;;;;;;6.65;3.55;;;;;;;27.34;25.98;101484.94;5027819;28;20049;-79
2021/06/13 08:19:07;;;;;;;5.65;3.65;;;;;;;28.08;25.27;101469.03;5026731;28;20177;-79
2021/06/13 08:21:35;;;;;;;8.05;3.70;;;;;;;28.74;24.14;101473.38;5023975;28;20053;-79
2021/06/13 08:24:03;;;;;;;8.05;3.72;;;;;;;29.26;24.07;101475.59;5024071;28;20046;-79
2021/06/13 08:26:31;;;;;;;6.45;3.30;;;;;;;29.90;22.76;101475.16;5024481;28;20061;-78
2021/06/13 08:29:00;;;;;;;5.63;3.50;;;;;;;30.49;21.67;101473.31;5021369;28;20058;-79
2021/06/13 08:31:27;;;;;;;4.65;3.13;;;;;;;31.29;20.90;101469.00;5021026;28;20060;-77
2021/06/13 08:33:56;;;;;;;7.22;3.13;;;;;;;31.61;20.09;101466.91;5015545;28;20053;-77
2021/06/13 08:36:24;;;;;;;;;;;;;;;31.93;20.54;101474.97;5019645;28;20054;-77
2021/06/13 08:38:52;;;;;;;6.40;3.35;;;;;;;32.62;18.84;101478.25;5015124;28;19928;-77
2021/06/13 08:41:20;;;;;;;7.05;3.97;;;;;;;33.26;18.67;101481.00;5021579;28;20057;-79
2021/06/13 08:43:48;;;;;;;5.07;3.03;;;;;;;33.78;17.56;101479.38;5029541;28;20057;-79
2021/06/13 08:46:16;;;;;;;7.72;3.60;;;;;;;34.07;17.34;101480.25;5018148;28;20510;-77
2021/06/13 08:48:46;;;;;;;7.07;3.38;;;;;;;34.43;16.41;101478.47;5015235;28;20076;-77
2021/06/13 08:51:15;;;;;;;4.97;3.30;;;;;;;34.91;16.18;101468.00;5016446;28;20065;-78
2021/06/13 08:53:44;;;;;;;6.45;3.10;;;;;;;35.54;16.53;101475.91;5014412;28;20054;-77
2021/06/13 08:56:13;;;;;;;4.22;3.15;;;;;;;35.91;16.52;101466.84;5014694;28;20058;-77
2021/06/13 08:58:40;;;;;;;6.18;3.40;;;;;;;36.46;15.07;101466.56;5014535;28;20054;-77
2021/06/13 09:01:09;;;;;;;6.47;3.17;;;;;;;36.71;14.82;101465.66;5014763;28;20526;-77
2021/06/13 09:03:36;;;;;;;;;;;;;;;37.11;14.64;101462.84;5015296;28;20465;-77
2021/06/13 09:06:03;;;;;;;5.68;3.50;;;;;;;37.81;13.35;101468.28;5015392;28;19922;-78
2021/06/13 09:08:35;;;;;;;6.38;3.90;;;;;;;38.49;13.25;101459.47;5015813;28;20061;-77
2021/06/13 09:11:04;;;;;;;6.57;3.47;;;;;;;38.35;13.38;101463.81;5015290;28;20061;-77
2021/06/13 09:13:34;;;;;;;6.40;3.40;;;;;;;38.94;12.66;101468.63;5015913;28;20491;-78
2021/06/13 09:16:04;;;;;;;4.80;3.78;;;;;;;38.88;12.58;101461.84;5015954;28;20054;-77
2021/06/13 09:18:35;;;;;;;6.50;4.35;;;;;;;39.50;12.18;101461.31;5015335;28;20058;-77
2021/06/13 09:21:04;;;;;;;14.98;8.30;;;;;;;40.03;11.88;101461.97;5015628;28;20057;-77
2021/06/13 09:23:34;;;;;;;5.50;3.55;;;;;;;40.68;11.98;101448.44;5014894;28;20049;-78
2021/06/13 09:26:05;;;;;;;5.35;3.83;;;;;;;41.14;11.21;101453.78;5015601;28;20061;-78
2021/06/13 09:28:36;;;;;;;6.47;3.50;;;;;;;41.20;10.09;101450.94;5015780;28;20380;-78
2021/06/13 09:31:05;;;;;;;5.28;3.60;;;;;;;41.35;10.55;101463.44;5015959;28;20061;-78
2021/06/13 09:33:35;;;;;;;4.97;3.47;;;;;;;41.89;9.98;101463.16;5016196;28;20049;-78
2021/06/13 09:36:04;;;;;;;5.90;3.42;;;;;;;42.48;10.32;101467.09;5016276;28;20085;-78
2021/06/13 09:38:33;;;;;;;6.07;4.25;;;;;;;42.81;9.89;101457.84;5015537;28;20062;-77
2021/06/13 09:41:05;;;;;;;6.20;3.60;;;;;;;42.75;10.00;101462.84;5016033;28;20050;-77
2021/06/13 09:43:37;;;;;;;5.03;3.83;;;;;;;42.72;9.86;101463.91;5015900;28;20050;-78
2021/06/13 09:46:09;;;;;;;5.15;3.17;;;;;;;43.35;9.84;101466.88;5015601;28;20057;-77
2021/06/13 09:48:38;;;;;;;5.90;3.60;;;;;;;43.69;9.80;101466.31;5016138;28;20053;-78
2021/06/13 09:51:09;;;;;;;6.30;4.10;;;;;;;43.83;9.06;101471.22;5016164;28;20058;-78
2021/06/13 09:53:44;;;;;;;5.15;3.67;;;;;;;44.26;8.82;101471.13;5016503;28;20041;-78
2021/06/13 09:56:25;;;;;;;4.68;3.45;;;;;;;44.71;7.96;101467.50;5004860;28;20065;-78
2021/06/13 09:58:58;;;;;;;3.85;3.42;;;;;;;44.65;8.79;101467.53;5006051;28;20049;-76
2021/06/13 10:01:30;;;;;;;6.13;3.50;;;;;;;44.36;9.44;101463.69;5013703;28;20061;-77
2021/06/13 10:03:58;;;;;;;5.80;3.60;;;;;;;44.65;8.60;101469.63;5011431;28;20056;-76
2021/06/13 10:06:30;;;;;;;5.82;4.07;;;;;;;45.18;8.18;101468.63;5009791;28;20046;-77
2021/06/13 10:08:58;;;;;;;6.32;3.90;;;;;;;45.82;7.67;101464.25;4992869;28;20080;-77
2021/06/13 10:11:27;;;;;;;6.03;3.72;;;;;;;45.95;7.82;101456.44;4990870;28;20060;-77
2021/06/13 10:13:57;;;;;;;6.20;3.75;;;;;;;46.03;8.13;101455.91;4993868;28;20061;-77
2021/06/13 10:16:31;;;;;;;6.65;4.45;;;;;;;45.87;7.40;101452.47;5006532;28;20407;-77
2021/06/13 10:19:05;;;;;;;6.15;3.55;;;;;;;45.68;7.65;101457.34;4995992;28;20069;-78
2021/06/13 10:21:36;;;;;;;4.85;3.50;;;;;;;46.30;6.93;101452.00;5000311;28;20061;-79
2021/06/13 10:24:10;;;;;;;6.30;3.80;;;;;;;46.09;7.28;101447.84;4999643;28;20054;-79
2021/06/13 10:26:41;;;;;;;5.55;3.72;;;;;;;46.64;7.32;101442.94;4995676;28;20046;-79
2021/06/13 10:29:10;;;;;;;5.78;4.20;;;;;;;46.71;7.57;101441.56;5001661;28;20061;-78
2021/06/13 10:31:38;;;;;;;5.35;3.42;;;;;;;47.13;7.24;101439.34;4994970;28;20056;-78
2021/06/13 10:34:06;;;;;;;5.22;3.35;;;;;;;47.16;6.77;101444.16;5005848;28;20060;-78
2021/06/13 10:36:36;;;;;;;6.18;4.28;;;;;;;47.22;7.10;101436.06;5003463;28;20476;-79
2021/06/13 10:39:06;;;;;;;5.55;3.70;;;;;;;47.36;6.92;101437.00;5002584;28;20061;-78
2021/06/13 10:41:34;;;;;;;8.15;3.67;;;;;;;47.40;7.09;101440.44;5003503;28;20065;-78
2021/06/13 10:44:06;;;;;;;4.50;3.58;;;;;;;46.11;7.65;101448.88;5005896;28;20050;-78
2021/06/13 10:46:37;;;;;;;6.93;3.97;;;;;;;47.00;6.32;101437.06;5004299;28;20065;-80
2021/06/13 10:49:09;;;;;;;5.95;3.70;;;;;;;46.56;7.11;101433.91;4993418;28;20415;-77
2021/06/13 10:51:40;;;;;;;4.72;3.42;;;;;;;46.85;7.72;101445.50;4991014;28;20383;-79
2021/06/13 10:54:30;;;;;;;6.90;3.70;;;;;;;46.72;7.05;101443.94;4994782;28;20496;-79
2021/06/13 10:57:25;;;;;;;6.57;3.70;;;;;;;46.54;7.46;101438.75;4994517;28;20055;-79
2021/06/13 10:59:55;;;;;;;4.57;3.42;;;;;;;46.61;6.60;101444.06;4949176;28;20061;-79
2021/06/13 11:02:24;;;;;;;6.63;3.65;;;;;;;47.04;6.67;101437.53;4993333;28;20046;-79
2021/06/13 11:04:54;;;;;;;6.38;3.60;;;;;;;46.43;6.75;101445.50;4994933;28;20053;-79
2021/06/13 11:08:04;;;;;;;5.85;3.65;;;;;;;46.95;6.29;101443.81;5001116;28;20058;-79
2021/06/13 11:10:32;;;;;;;5.55;3.65;;;;;;;46.47;7.15;101439.31;4999028;28;20057;-79
2021/06/13 11:13:03;;;;;;;6.07;3.38;;;;;;;46.66;7.17;101446.13;5014591;28;20054;-79
2021/06/13 11:16:02;;;;;;;7.22;3.85;;;;;;;46.33;6.93;101453.88;5015287;28;20053;-79
2021/06/13 11:18:34;;;;;;;5.82;3.50;;;;;;;46.24;6.62;101454.16;5014397;28;20077;-79
2021/06/13 11:21:12;;;;;;;5.55;3.33;;;;;;;46.19;6.61;101449.13;5014529;28;20057;-79
2021/06/13 11:23:48;;;;;;;5.50;3.65;;;;;;;46.02;7.08;101445.47;5014856;28;20051;-79
2021/06/13 11:26:38;;;;;;;5.38;3.38;;;;;;;45.69;7.90;101441.28;5015701;28;20057;-80
2021/06/13 11:29:10;;;;;;;5.88;3.55;;;;;;;46.06;6.99;101437.94;5015380;28;20061;-79
2021/06/13 11:31:52;;;;;;;5.72;4.10;;;;;;;45.67;7.64;101441.81;5015814;28;20054;-79
2021/06/13 11:34:23;;;;;;;6.05;4.13;;;;;;;45.71;7.33;101439.41;5016278;28;20050;-79
2021/06/13 11:36:51;;;;;;;4.85;3.60;;;;;;;45.89;7.22;101437.19;5015765;28;20054;-79
2021/06/13 11:39:29;;;;;;;5.90;3.40;;;;;;;45.53;7.71;101442.91;5015875;28;20049;-79